sensor_id;sensor_type;location;lat;lon;timestamp;P1;durP1;ratioP1;P2;durP2;ratioP2
67429;SDS011;54298;52.076;5.264;2024-03-07T00:01:08;30.5;;;19.61;;
67429;SDS011;54298;52.076;5.264;2024-03-07T00:04:22;33.5;;;20.3;;
67429;SDS011;54298;52.076;5.264;2024-03-07T00:06:01;37.71;;;19.8;;
67429;SDS011;54298;52.076;5.264;2024-03-07T00:07:37;34.0;;;19.2;;
67429;SDS011;54298;52.076;5.264;2024-03-07T00:10:49;31.4;;;19.7;;
67429;SDS011;54298;52.076;5.264;2024-03-07T00:12:25;33.1;;;18.7;;
67429;SDS011;54298;52.076;5.264;2024-03-07T00:14:01;33.21;;;20.5;;
67429;SDS011;54298;52.076;5.264;2024-03-07T00:17:14;32.21;;;20.41;;
67429;SDS011;54298;52.076;5.264;2024-03-07T00:18:50;31.9;;;18.61;;
67429;SDS011;54298;52.076;5.264;2024-03-07T00:20:26;33.3;;;21.0;;
67429;SDS011;54298;52.076;5.264;2024-03-07T00:22:02;37.21;;;20.8;;
67429;SDS011;54298;52.076;5.264;2024-03-07T00:25:14;32.8;;;19.5;;
67429;SDS011;54298;52.076;5.264;2024-03-07T00:26:50;29.9;;;18.5;;
67429;SDS011;54298;52.076;5.264;2024-03-07T00:28:26;27.5;;;17.7;;
67429;SDS011;54298;52.076;5.264;2024-03-07T00:31:40;26.4;;;17.0;;
67429;SDS011;54298;52.076;5.264;2024-03-07T00:33:16;27.6;;;19.11;;
67429;SDS011;54298;52.076;5.264;2024-03-07T00:34:52;35.71;;;20.5;;
67429;SDS011;54298;52.076;5.264;2024-03-07T00:38:04;30.6;;;18.5;;
67429;SDS011;54298;52.076;5.264;2024-03-07T00:39:41;29.3;;;17.8;;
67429;SDS011;54298;52.076;5.264;2024-03-07T00:41:18;25.0;;;15.1;;
67429;SDS011;54298;52.076;5.264;2024-03-07T00:42:57;24.9;;;17.41;;
67429;SDS011;54298;52.076;5.264;2024-03-07T00:46:10;23.9;;;15.7;;
67429;SDS011;54298;52.076;5.264;2024-03-07T00:47:46;29.3;;;16.7;;
67429;SDS011;54298;52.076;5.264;2024-03-07T00:49:22;31.6;;;19.41;;
67429;SDS011;54298;52.076;5.264;2024-03-07T00:52:34;28.8;;;16.9;;
67429;SDS011;54298;52.076;5.264;2024-03-07T00:54:10;26.0;;;17.11;;
67429;SDS011;54298;52.076;5.264;2024-03-07T00:55:46;33.6;;;16.7;;
67429;SDS011;54298;52.076;5.264;2024-03-07T00:58:58;24.6;;;16.4;;
67429;SDS011;54298;52.076;5.264;2024-03-07T01:00:35;24.4;;;15.8;;
67429;SDS011;54298;52.076;5.264;2024-03-07T01:02:11;28.1;;;17.41;;
67429;SDS011;54298;52.076;5.264;2024-03-07T01:03:48;32.21;;;18.41;;
67429;SDS011;54298;52.076;5.264;2024-03-07T01:07:01;26.9;;;18.2;;
67429;SDS011;54298;52.076;5.264;2024-03-07T01:08:38;31.7;;;18.0;;
67429;SDS011;54298;52.076;5.264;2024-03-07T01:10:15;31.8;;;18.91;;
67429;SDS011;54298;52.076;5.264;2024-03-07T01:13:28;28.2;;;17.8;;
67429;SDS011;54298;52.076;5.264;2024-03-07T01:15:04;28.0;;;18.41;;
67429;SDS011;54298;52.076;5.264;2024-03-07T01:16:41;30.0;;;18.8;;
67429;SDS011;54298;52.076;5.264;2024-03-07T01:19:53;30.7;;;18.8;;
67429;SDS011;54298;52.076;5.264;2024-03-07T01:21:29;28.9;;;18.3;;
67429;SDS011;54298;52.076;5.264;2024-03-07T01:23:05;31.8;;;19.3;;
67429;SDS011;54298;52.076;5.264;2024-03-07T01:26:18;31.4;;;19.91;;
67429;SDS011;54298;52.076;5.264;2024-03-07T01:27:54;32.1;;;20.41;;
67429;SDS011;54298;52.076;5.264;2024-03-07T01:29:30;39.4;;;20.8;;
67429;SDS011;54298;52.076;5.264;2024-03-07T01:31:06;33.1;;;20.9;;
67429;SDS011;54298;52.076;5.264;2024-03-07T01:34:18;32.9;;;20.8;;
67429;SDS011;54298;52.076;5.264;2024-03-07T01:35:54;32.21;;;20.2;;
67429;SDS011;54298;52.076;5.264;2024-03-07T01:37:30;36.5;;;20.6;;
67429;SDS011;54298;52.076;5.264;2024-03-07T01:40:43;35.9;;;21.6;;
67429;SDS011;54298;52.076;5.264;2024-03-07T01:42:20;31.7;;;20.9;;
67429;SDS011;54298;52.076;5.264;2024-03-07T01:43:56;39.71;;;22.1;;
67429;SDS011;54298;52.076;5.264;2024-03-07T01:47:08;35.5;;;21.8;;
67429;SDS011;54298;52.076;5.264;2024-03-07T01:48:44;32.21;;;20.0;;
67429;SDS011;54298;52.076;5.264;2024-03-07T01:50:20;33.9;;;22.3;;
67429;SDS011;54298;52.076;5.264;2024-03-07T01:51:57;35.31;;;20.8;;
67429;SDS011;54298;52.076;5.264;2024-03-07T01:55:15;40.9;;;24.0;;
67429;SDS011;54298;52.076;5.264;2024-03-07T01:56:51;36.5;;;23.3;;
67429;SDS011;54298;52.076;5.264;2024-03-07T01:58:27;39.31;;;23.7;;
67429;SDS011;54298;52.076;5.264;2024-03-07T02:01:43;43.5;;;23.8;;
67429;SDS011;54298;52.076;5.264;2024-03-07T02:03:19;34.4;;;22.8;;
67429;SDS011;54298;52.076;5.264;2024-03-07T02:04:58;40.81;;;23.7;;
67429;SDS011;54298;52.076;5.264;2024-03-07T02:06:34;35.31;;;21.1;;
67429;SDS011;54298;52.076;5.264;2024-03-07T02:09:47;42.2;;;20.11;;
67429;SDS011;54298;52.076;5.264;2024-03-07T02:11:23;39.9;;;23.8;;
67429;SDS011;54298;52.076;5.264;2024-03-07T02:12:59;40.21;;;22.1;;
67429;SDS011;54298;52.076;5.264;2024-03-07T02:16:14;38.0;;;22.4;;
67429;SDS011;54298;52.076;5.264;2024-03-07T02:17:50;41.2;;;24.6;;
67429;SDS011;54298;52.076;5.264;2024-03-07T02:19:26;43.2;;;23.1;;
67429;SDS011;54298;52.076;5.264;2024-03-07T02:22:41;39.0;;;21.2;;
67429;SDS011;54298;52.076;5.264;2024-03-07T02:24:18;43.0;;;22.9;;
67429;SDS011;54298;52.076;5.264;2024-03-07T02:25:54;40.6;;;23.1;;
67429;SDS011;54298;52.076;5.264;2024-03-07T02:27:30;39.0;;;23.0;;
67429;SDS011;54298;52.076;5.264;2024-03-07T02:30:42;32.21;;;20.5;;
67429;SDS011;54298;52.076;5.264;2024-03-07T02:32:18;42.3;;;22.5;;
67429;SDS011;54298;52.076;5.264;2024-03-07T02:33:54;35.0;;;19.91;;
67429;SDS011;54298;52.076;5.264;2024-03-07T02:37:06;39.6;;;23.7;;
67429;SDS011;54298;52.076;5.264;2024-03-07T02:38:42;37.0;;;22.7;;
67429;SDS011;54298;52.076;5.264;2024-03-07T02:40:19;46.0;;;23.0;;
67429;SDS011;54298;52.076;5.264;2024-03-07T02:43:31;38.5;;;22.4;;
67429;SDS011;54298;52.076;5.264;2024-03-07T02:45:07;39.71;;;21.6;;
67429;SDS011;54298;52.076;5.264;2024-03-07T02:46:44;41.9;;;22.7;;
67429;SDS011;54298;52.076;5.264;2024-03-07T02:49:57;42.7;;;23.4;;
67429;SDS011;54298;52.076;5.264;2024-03-07T02:51:33;41.7;;;22.8;;
67429;SDS011;54298;52.076;5.264;2024-03-07T02:53:09;38.5;;;23.3;;
67429;SDS011;54298;52.076;5.264;2024-03-07T02:54:46;38.5;;;23.3;;
67429;SDS011;54298;52.076;5.264;2024-03-07T02:57:58;38.5;;;22.6;;
67429;SDS011;54298;52.076;5.264;2024-03-07T02:59:34;40.21;;;24.2;;
67429;SDS011;54298;52.076;5.264;2024-03-07T03:01:10;40.5;;;22.6;;
67429;SDS011;54298;52.076;5.264;2024-03-07T03:04:24;48.3;;;24.5;;
67429;SDS011;54298;52.076;5.264;2024-03-07T03:06:00;45.3;;;24.9;;
67429;SDS011;54298;52.076;5.264;2024-03-07T03:07:36;45.2;;;25.2;;
67429;SDS011;54298;52.076;5.264;2024-03-07T03:10:49;43.7;;;24.4;;
67429;SDS011;54298;52.076;5.264;2024-03-07T03:12:26;41.1;;;23.1;;
67429;SDS011;54298;52.076;5.264;2024-03-07T03:14:05;47.1;;;25.0;;
67429;SDS011;54298;52.076;5.264;2024-03-07T03:15:41;42.2;;;23.6;;
67429;SDS011;54298;52.076;5.264;2024-03-07T03:18:53;38.21;;;22.1;;
67429;SDS011;54298;52.076;5.264;2024-03-07T03:20:29;40.4;;;24.5;;
67429;SDS011;54298;52.076;5.264;2024-03-07T03:22:05;41.2;;;23.1;;
67429;SDS011;54298;52.076;5.264;2024-03-07T03:25:18;37.4;;;21.8;;
67429;SDS011;54298;52.076;5.264;2024-03-07T03:26:54;38.9;;;22.8;;
67429;SDS011;54298;52.076;5.264;2024-03-07T03:28:30;39.5;;;25.2;;
67429;SDS011;54298;52.076;5.264;2024-03-07T03:31:43;39.71;;;21.5;;
67429;SDS011;54298;52.076;5.264;2024-03-07T03:33:19;46.9;;;24.9;;
67429;SDS011;54298;52.076;5.264;2024-03-07T03:34:55;42.3;;;25.7;;
67429;SDS011;54298;52.076;5.264;2024-03-07T03:36:31;42.0;;;23.6;;
67429;SDS011;54298;52.076;5.264;2024-03-07T03:39:44;42.0;;;23.3;;
67429;SDS011;54298;52.076;5.264;2024-03-07T03:41:21;38.9;;;23.7;;
67429;SDS011;54298;52.076;5.264;2024-03-07T03:42:58;36.4;;;22.9;;
67429;SDS011;54298;52.076;5.264;2024-03-07T03:46:10;31.7;;;19.8;;
67429;SDS011;54298;52.076;5.264;2024-03-07T03:47:46;43.6;;;23.8;;
67429;SDS011;54298;52.076;5.264;2024-03-07T03:49:22;34.31;;;22.2;;
67429;SDS011;54298;52.076;5.264;2024-03-07T03:52:35;38.31;;;21.0;;
67429;SDS011;54298;52.076;5.264;2024-03-07T03:54:11;38.5;;;20.3;;
67429;SDS011;54298;52.076;5.264;2024-03-07T03:55:47;34.4;;;19.91;;
67429;SDS011;54298;52.076;5.264;2024-03-07T03:58:59;34.81;;;20.41;;
67429;SDS011;54298;52.076;5.264;2024-03-07T04:00:35;35.4;;;21.7;;
67429;SDS011;54298;52.076;5.264;2024-03-07T04:02:11;37.9;;;20.7;;
67429;SDS011;54298;52.076;5.264;2024-03-07T04:03:47;37.9;;;21.5;;
67429;SDS011;54298;52.076;5.264;2024-03-07T04:07:00;38.4;;;22.4;;
67429;SDS011;54298;52.076;5.264;2024-03-07T04:08:36;38.81;;;22.3;;
67429;SDS011;54298;52.076;5.264;2024-03-07T04:10:12;37.0;;;20.9;;
67429;SDS011;54298;52.076;5.264;2024-03-07T04:13:28;37.6;;;20.6;;
67429;SDS011;54298;52.076;5.264;2024-03-07T04:15:10;37.0;;;22.6;;
67429;SDS011;54298;52.076;5.264;2024-03-07T04:16:49;42.3;;;23.5;;
67429;SDS011;54298;52.076;5.264;2024-03-07T04:18:25;34.1;;;21.5;;
67429;SDS011;54298;52.076;5.264;2024-03-07T04:21:40;42.1;;;23.0;;
67429;SDS011;54298;52.076;5.264;2024-03-07T04:23:16;45.1;;;24.8;;
67429;SDS011;54298;52.076;5.264;2024-03-07T04:24:52;43.3;;;23.6;;
67429;SDS011;54298;52.076;5.264;2024-03-07T04:28:04;38.5;;;24.5;;
67429;SDS011;54298;52.076;5.264;2024-03-07T04:29:40;38.6;;;23.2;;
67429;SDS011;54298;52.076;5.264;2024-03-07T04:31:16;39.6;;;22.0;;
67429;SDS011;54298;52.076;5.264;2024-03-07T04:34:29;40.71;;;23.2;;
67429;SDS011;54298;52.076;5.264;2024-03-07T04:36:05;38.71;;;22.9;;
67429;SDS011;54298;52.076;5.264;2024-03-07T04:37:41;41.2;;;22.7;;
67429;SDS011;54298;52.076;5.264;2024-03-07T04:39:17;50.8;;;24.1;;
67429;SDS011;54298;52.076;5.264;2024-03-07T04:42:29;38.71;;;24.5;;
67429;SDS011;54298;52.076;5.264;2024-03-07T04:44:05;37.6;;;23.4;;
67429;SDS011;54298;52.076;5.264;2024-03-07T04:45:42;35.5;;;22.1;;
67429;SDS011;54298;52.076;5.264;2024-03-07T04:48:54;38.21;;;21.9;;
67429;SDS011;54298;52.076;5.264;2024-03-07T04:50:30;40.5;;;24.0;;
67429;SDS011;54298;52.076;5.264;2024-03-07T04:52:06;38.6;;;22.2;;
67429;SDS011;54298;52.076;5.264;2024-03-07T04:55:18;45.6;;;23.2;;
67429;SDS011;54298;52.076;5.264;2024-03-07T04:56:54;45.6;;;23.2;;
67429;SDS011;54298;52.076;5.264;2024-03-07T04:58:31;40.4;;;22.7;;
67429;SDS011;54298;52.076;5.264;2024-03-07T05:01:49;31.9;;;19.0;;
67429;SDS011;54298;52.076;5.264;2024-03-07T05:03:26;34.21;;;22.4;;
67429;SDS011;54298;52.076;5.264;2024-03-07T05:05:02;47.1;;;23.9;;
67429;SDS011;54298;52.076;5.264;2024-03-07T05:06:38;39.9;;;22.9;;
67429;SDS011;54298;52.076;5.264;2024-03-07T05:09:51;38.21;;;22.2;;
67429;SDS011;54298;52.076;5.264;2024-03-07T05:11:28;37.6;;;23.4;;
67429;SDS011;54298;52.076;5.264;2024-03-07T05:13:04;38.4;;;21.3;;
67429;SDS011;54298;52.076;5.264;2024-03-07T05:16:16;35.6;;;20.0;;
67429;SDS011;54298;52.076;5.264;2024-03-07T05:17:53;43.7;;;21.5;;
67429;SDS011;54298;52.076;5.264;2024-03-07T05:19:29;41.8;;;24.3;;
67429;SDS011;54298;52.076;5.264;2024-03-07T05:21:05;39.4;;;22.3;;
67429;SDS011;54298;52.076;5.264;2024-03-07T05:24:17;39.21;;;21.4;;
67429;SDS011;54298;52.076;5.264;2024-03-07T05:25:54;32.21;;;19.7;;
67429;SDS011;54298;52.076;5.264;2024-03-07T05:27:30;39.0;;;22.3;;
67429;SDS011;54298;52.076;5.264;2024-03-07T05:30:44;34.0;;;21.2;;
67429;SDS011;54298;52.076;5.264;2024-03-07T05:32:21;46.4;;;22.6;;
67429;SDS011;54298;52.076;5.264;2024-03-07T05:33:57;42.4;;;22.3;;
67429;SDS011;54298;52.076;5.264;2024-03-07T05:37:09;39.6;;;22.4;;
67429;SDS011;54298;52.076;5.264;2024-03-07T05:38:46;38.71;;;23.9;;
67429;SDS011;54298;52.076;5.264;2024-03-07T05:40:22;45.0;;;23.4;;
67429;SDS011;54298;52.076;5.264;2024-03-07T05:43:34;39.6;;;22.3;;
67429;SDS011;54298;52.076;5.264;2024-03-07T05:45:10;40.4;;;23.1;;
67429;SDS011;54298;52.076;5.264;2024-03-07T05:46:46;35.9;;;23.7;;
67429;SDS011;54298;52.076;5.264;2024-03-07T05:48:22;41.2;;;24.3;;
67429;SDS011;54298;52.076;5.264;2024-03-07T05:51:34;41.2;;;24.3;;
67429;SDS011;54298;52.076;5.264;2024-03-07T05:53:11;45.8;;;24.5;;
67429;SDS011;54298;52.076;5.264;2024-03-07T05:54:47;41.7;;;24.4;;
67429;SDS011;54298;52.076;5.264;2024-03-07T05:58:02;44.8;;;26.0;;
67429;SDS011;54298;52.076;5.264;2024-03-07T05:59:38;36.71;;;22.4;;
67429;SDS011;54298;52.076;5.264;2024-03-07T06:01:14;41.8;;;24.7;;
67429;SDS011;54298;52.076;5.264;2024-03-07T06:04:26;37.81;;;22.5;;
67429;SDS011;54298;52.076;5.264;2024-03-07T06:06:03;39.4;;;22.8;;
67429;SDS011;54298;52.076;5.264;2024-03-07T06:07:39;41.0;;;24.7;;
67429;SDS011;54298;52.076;5.264;2024-03-07T06:09:15;40.1;;;22.9;;
67429;SDS011;54298;52.076;5.264;2024-03-07T06:12:27;32.1;;;21.3;;
67429;SDS011;54298;52.076;5.264;2024-03-07T06:14:03;40.81;;;23.3;;
67429;SDS011;54298;52.076;5.264;2024-03-07T06:15:42;35.21;;;20.6;;
67429;SDS011;54298;52.076;5.264;2024-03-07T06:18:55;39.4;;;21.6;;
67429;SDS011;54298;52.076;5.264;2024-03-07T06:20:32;47.4;;;23.8;;
67429;SDS011;54298;52.076;5.264;2024-03-07T06:22:08;46.0;;;22.9;;
67429;SDS011;54298;52.076;5.264;2024-03-07T06:25:20;31.0;;;21.1;;
67429;SDS011;54298;52.076;5.264;2024-03-07T06:26:56;38.0;;;23.7;;
67429;SDS011;54298;52.076;5.264;2024-03-07T06:28:32;38.4;;;22.2;;
67429;SDS011;54298;52.076;5.264;2024-03-07T06:30:09;38.1;;;24.4;;
67429;SDS011;54298;52.076;5.264;2024-03-07T06:33:22;39.6;;;23.6;;
67429;SDS011;54298;52.076;5.264;2024-03-07T06:34:58;35.21;;;22.6;;
67429;SDS011;54298;52.076;5.264;2024-03-07T06:36:34;38.9;;;24.2;;
67429;SDS011;54298;52.076;5.264;2024-03-07T06:39:47;38.5;;;23.3;;
67429;SDS011;54298;52.076;5.264;2024-03-07T06:41:23;39.71;;;22.4;;
67429;SDS011;54298;52.076;5.264;2024-03-07T06:42:59;41.8;;;23.9;;
67429;SDS011;54298;52.076;5.264;2024-03-07T06:46:13;48.3;;;22.0;;
67429;SDS011;54298;52.076;5.264;2024-03-07T06:47:49;70.8;;;43.4;;
67429;SDS011;54298;52.076;5.264;2024-03-07T06:49:25;246.4;;;139.6;;
67429;SDS011;54298;52.076;5.264;2024-03-07T06:52:37;303.7;;;189.8;;
67429;SDS011;54298;52.076;5.264;2024-03-07T06:54:13;34.81;;;23.2;;
67429;SDS011;54298;52.076;5.264;2024-03-07T06:55:49;29.6;;;19.91;;
67429;SDS011;54298;52.076;5.264;2024-03-07T06:57:25;33.9;;;19.8;;
67429;SDS011;54298;52.076;5.264;2024-03-07T07:00:38;36.4;;;23.0;;
67429;SDS011;54298;52.076;5.264;2024-03-07T07:02:14;48.8;;;21.3;;
67429;SDS011;54298;52.076;5.264;2024-03-07T07:03:50;40.9;;;22.4;;
67429;SDS011;54298;52.076;5.264;2024-03-07T07:07:02;40.81;;;23.5;;
67429;SDS011;54298;52.076;5.264;2024-03-07T07:08:38;43.6;;;23.8;;
67429;SDS011;54298;52.076;5.264;2024-03-07T07:10:14;39.21;;;22.5;;
67429;SDS011;54298;52.076;5.264;2024-03-07T07:13:27;35.4;;;21.9;;
67429;SDS011;54298;52.076;5.264;2024-03-07T07:15:03;41.1;;;23.8;;
67429;SDS011;54298;52.076;5.264;2024-03-07T07:16:40;42.1;;;24.0;;
67429;SDS011;54298;52.076;5.264;2024-03-07T07:18:16;39.9;;;22.2;;
67429;SDS011;54298;52.076;5.264;2024-03-07T07:21:28;36.71;;;22.5;;
67429;SDS011;54298;52.076;5.264;2024-03-07T07:23:04;38.0;;;22.8;;
67429;SDS011;54298;52.076;5.264;2024-03-07T07:24:40;41.6;;;23.8;;
67429;SDS011;54298;52.076;5.264;2024-03-07T07:27:53;40.0;;;20.3;;
67429;SDS011;54298;52.076;5.264;2024-03-07T07:29:29;38.0;;;23.0;;
67429;SDS011;54298;52.076;5.264;2024-03-07T07:31:05;38.9;;;22.6;;
67429;SDS011;54298;52.076;5.264;2024-03-07T07:34:18;33.21;;;20.6;;
67429;SDS011;54298;52.076;5.264;2024-03-07T07:35:54;37.6;;;21.5;;
67429;SDS011;54298;52.076;5.264;2024-03-07T07:37:30;39.81;;;22.1;;
67429;SDS011;54298;52.076;5.264;2024-03-07T07:40:43;33.8;;;20.3;;
67429;SDS011;54298;52.076;5.264;2024-03-07T07:42:19;37.71;;;21.1;;
67429;SDS011;54298;52.076;5.264;2024-03-07T07:43:55;34.21;;;22.1;;
67429;SDS011;54298;52.076;5.264;2024-03-07T07:45:31;36.31;;;22.1;;
67429;SDS011;54298;52.076;5.264;2024-03-07T07:48:43;32.6;;;20.2;;
67429;SDS011;54298;52.076;5.264;2024-03-07T07:50:20;34.81;;;21.8;;
67429;SDS011;54298;52.076;5.264;2024-03-07T07:51:58;34.9;;;20.7;;
67429;SDS011;54298;52.076;5.264;2024-03-07T07:55:11;28.5;;;18.7;;
67429;SDS011;54298;52.076;5.264;2024-03-07T07:56:47;30.1;;;20.2;;
67429;SDS011;54298;52.076;5.264;2024-03-07T07:58:23;27.0;;;17.91;;
67429;SDS011;54298;52.076;5.264;2024-03-07T08:01:35;30.0;;;18.61;;
67429;SDS011;54298;52.076;5.264;2024-03-07T08:03:11;38.31;;;20.5;;
67429;SDS011;54298;52.076;5.264;2024-03-07T08:04:48;29.3;;;18.0;;
67429;SDS011;54298;52.076;5.264;2024-03-07T08:06:24;24.0;;;16.2;;
67429;SDS011;54298;52.076;5.264;2024-03-07T08:09:38;28.4;;;16.4;;
67429;SDS011;54298;52.076;5.264;2024-03-07T08:11:14;23.6;;;15.8;;
67429;SDS011;54298;52.076;5.264;2024-03-07T08:12:50;25.3;;;15.4;;
67429;SDS011;54298;52.076;5.264;2024-03-07T08:16:03;25.8;;;14.6;;
67429;SDS011;54298;52.076;5.264;2024-03-07T08:17:40;23.8;;;13.8;;
67429;SDS011;54298;52.076;5.264;2024-03-07T08:19:18;22.2;;;14.7;;
67429;SDS011;54298;52.076;5.264;2024-03-07T08:22:30;24.7;;;13.8;;
67429;SDS011;54298;52.076;5.264;2024-03-07T08:24:06;23.2;;;14.6;;
67429;SDS011;54298;52.076;5.264;2024-03-07T08:25:42;21.9;;;13.2;;
67429;SDS011;54298;52.076;5.264;2024-03-07T08:27:18;26.0;;;14.8;;
67429;SDS011;54298;52.076;5.264;2024-03-07T08:30:30;26.1;;;15.1;;
67429;SDS011;54298;52.076;5.264;2024-03-07T08:32:07;23.4;;;13.8;;
67429;SDS011;54298;52.076;5.264;2024-03-07T08:33:44;24.5;;;14.0;;
67429;SDS011;54298;52.076;5.264;2024-03-07T08:36:56;28.9;;;14.5;;
67429;SDS011;54298;52.076;5.264;2024-03-07T08:38:35;20.5;;;12.0;;
67429;SDS011;54298;52.076;5.264;2024-03-07T08:40:12;23.4;;;13.5;;
67429;SDS011;54298;52.076;5.264;2024-03-07T08:43:24;20.3;;;12.4;;
67429;SDS011;54298;52.076;5.264;2024-03-07T08:45:01;25.1;;;13.6;;
67429;SDS011;54298;52.076;5.264;2024-03-07T08:46:39;24.6;;;13.3;;
67429;SDS011;54298;52.076;5.264;2024-03-07T08:48:15;19.3;;;11.5;;
67429;SDS011;54298;52.076;5.264;2024-03-07T08:51:27;21.6;;;12.2;;
67429;SDS011;54298;52.076;5.264;2024-03-07T08:54:41;20.7;;;12.4;;
67429;SDS011;54298;52.076;5.264;2024-03-07T08:57:53;25.7;;;13.2;;
67429;SDS011;54298;52.076;5.264;2024-03-07T08:59:30;18.41;;;11.7;;
67429;SDS011;54298;52.076;5.264;2024-03-07T09:01:09;21.0;;;11.0;;
67429;SDS011;54298;52.076;5.264;2024-03-07T09:04:21;16.2;;;9.1;;
67429;SDS011;54298;52.076;5.264;2024-03-07T09:05:57;16.4;;;10.7;;
67429;SDS011;54298;52.076;5.264;2024-03-07T09:07:33;16.8;;;10.5;;
67429;SDS011;54298;52.076;5.264;2024-03-07T09:09:09;21.0;;;12.2;;
67429;SDS011;54298;52.076;5.264;2024-03-07T09:12:21;16.8;;;11.3;;
67429;SDS011;54298;52.076;5.264;2024-03-07T09:13:58;17.91;;;11.5;;
67429;SDS011;54298;52.076;5.264;2024-03-07T09:15:34;14.6;;;9.5;;
67429;SDS011;54298;52.076;5.264;2024-03-07T09:18:46;16.61;;;10.3;;
67429;SDS011;54298;52.076;5.264;2024-03-07T09:20:22;18.0;;;9.31;;
67429;SDS011;54298;52.076;5.264;2024-03-07T09:21:58;18.0;;;9.31;;
67429;SDS011;54298;52.076;5.264;2024-03-07T09:25:10;17.0;;;10.21;;
67429;SDS011;54298;52.076;5.264;2024-03-07T09:26:47;19.41;;;10.1;;
67429;SDS011;54298;52.076;5.264;2024-03-07T09:28:24;14.9;;;9.6;;
67429;SDS011;54298;52.076;5.264;2024-03-07T09:31:36;17.3;;;10.6;;
67429;SDS011;54298;52.076;5.264;2024-03-07T09:33:12;14.4;;;7.3;;
67429;SDS011;54298;52.076;5.264;2024-03-07T09:34:48;14.0;;;8.71;;
67429;SDS011;54298;52.076;5.264;2024-03-07T09:36:24;18.3;;;10.5;;
67429;SDS011;54298;52.076;5.264;2024-03-07T09:39:36;13.9;;;8.5;;
67429;SDS011;54298;52.076;5.264;2024-03-07T09:41:14;16.5;;;9.21;;
67429;SDS011;54298;52.076;5.264;2024-03-07T09:42:51;15.4;;;9.4;;
67429;SDS011;54298;52.076;5.264;2024-03-07T09:46:04;18.0;;;8.71;;
67429;SDS011;54298;52.076;5.264;2024-03-07T09:47:42;14.4;;;7.6;;
67429;SDS011;54298;52.076;5.264;2024-03-07T09:49:22;17.11;;;9.9;;
67429;SDS011;54298;52.076;5.264;2024-03-07T09:51:00;15.2;;;8.9;;
67429;SDS011;54298;52.076;5.264;2024-03-07T09:54:19;11.2;;;7.5;;
67429;SDS011;54298;52.076;5.264;2024-03-07T09:55:55;16.3;;;9.81;;
67429;SDS011;54298;52.076;5.264;2024-03-07T09:57:31;16.11;;;9.1;;
67429;SDS011;54298;52.076;5.264;2024-03-07T10:00:48;18.61;;;10.0;;
67429;SDS011;54298;52.076;5.264;2024-03-07T10:02:25;17.8;;;9.5;;
67429;SDS011;54298;52.076;5.264;2024-03-07T10:04:02;14.3;;;8.9;;
67429;SDS011;54298;52.076;5.264;2024-03-07T10:05:43;18.0;;;10.6;;
67429;SDS011;54298;52.076;5.264;2024-03-07T10:08:57;16.9;;;9.71;;
67429;SDS011;54298;52.076;5.264;2024-03-07T10:10:33;11.7;;;8.1;;
67429;SDS011;54298;52.076;5.264;2024-03-07T10:12:09;14.3;;;9.21;;
67429;SDS011;54298;52.076;5.264;2024-03-07T10:15:21;14.1;;;8.71;;
67429;SDS011;54298;52.076;5.264;2024-03-07T10:17:02;19.3;;;8.81;;
67429;SDS011;54298;52.076;5.264;2024-03-07T10:18:41;12.7;;;8.71;;
67429;SDS011;54298;52.076;5.264;2024-03-07T10:20:18;16.9;;;9.6;;
67429;SDS011;54298;52.076;5.264;2024-03-07T10:23:31;16.9;;;9.6;;
67429;SDS011;54298;52.076;5.264;2024-03-07T10:25:07;13.2;;;9.1;;
67429;SDS011;54298;52.076;5.264;2024-03-07T10:26:44;17.2;;;8.6;;
67429;SDS011;54298;52.076;5.264;2024-03-07T10:29:56;14.7;;;9.1;;
67429;SDS011;54298;52.076;5.264;2024-03-07T10:31:35;15.4;;;9.31;;
67429;SDS011;54298;52.076;5.264;2024-03-07T10:33:12;14.9;;;8.31;;
67429;SDS011;54298;52.076;5.264;2024-03-07T10:36:26;17.8;;;9.21;;
67429;SDS011;54298;52.076;5.264;2024-03-07T10:38:02;13.7;;;8.4;;
67429;SDS011;54298;52.076;5.264;2024-03-07T10:39:38;16.4;;;8.71;;
67429;SDS011;54298;52.076;5.264;2024-03-07T10:41:14;13.4;;;8.9;;
67429;SDS011;54298;52.076;5.264;2024-03-07T10:44:33;12.5;;;7.4;;
67429;SDS011;54298;52.076;5.264;2024-03-07T10:46:16;14.2;;;8.9;;
67429;SDS011;54298;52.076;5.264;2024-03-07T10:47:56;13.7;;;8.81;;
67429;SDS011;54298;52.076;5.264;2024-03-07T10:49:35;13.3;;;8.71;;
67429;SDS011;54298;52.076;5.264;2024-03-07T10:53:06;14.9;;;8.81;;
67429;SDS011;54298;52.076;5.264;2024-03-07T10:54:52;14.8;;;8.1;;
67429;SDS011;54298;52.076;5.264;2024-03-07T10:56:46;14.4;;;8.81;;
67429;SDS011;54298;52.076;5.264;2024-03-07T10:58:47;15.9;;;8.71;;
67429;SDS011;54298;52.076;5.264;2024-03-07T11:00:34;13.9;;;8.6;;
67429;SDS011;54298;52.076;5.264;2024-03-07T11:02:14;12.9;;;8.31;;
67429;SDS011;54298;52.076;5.264;2024-03-07T11:05:36;11.9;;;8.31;;
67429;SDS011;54298;52.076;5.264;2024-03-07T11:07:13;12.5;;;8.81;;
67429;SDS011;54298;52.076;5.264;2024-03-07T11:08:49;16.9;;;10.0;;
67429;SDS011;54298;52.076;5.264;2024-03-07T11:10:27;11.7;;;7.6;;
67429;SDS011;54298;52.076;5.264;2024-03-07T11:13:42;12.1;;;8.4;;
67429;SDS011;54298;52.076;5.264;2024-03-07T11:15:20;13.4;;;8.2;;
67429;SDS011;54298;52.076;5.264;2024-03-07T11:16:59;14.4;;;8.81;;
67429;SDS011;54298;52.076;5.264;2024-03-07T11:20:18;14.2;;;7.5;;
67429;SDS011;54298;52.076;5.264;2024-03-07T11:21:55;16.2;;;9.4;;
67429;SDS011;54298;52.076;5.264;2024-03-07T11:23:32;14.6;;;8.0;;
67429;SDS011;54298;52.076;5.264;2024-03-07T11:25:09;12.5;;;8.1;;
67429;SDS011;54298;52.076;5.264;2024-03-07T11:28:28;14.4;;;8.9;;
67429;SDS011;54298;52.076;5.264;2024-03-07T11:30:06;12.2;;;7.7;;
67429;SDS011;54298;52.076;5.264;2024-03-07T11:31:43;15.4;;;7.7;;
67429;SDS011;54298;52.076;5.264;2024-03-07T11:34:56;13.8;;;8.31;;
67429;SDS011;54298;52.076;5.264;2024-03-07T11:36:44;15.6;;;8.2;;
67429;SDS011;54298;52.076;5.264;2024-03-07T11:38:20;12.9;;;7.6;;
67429;SDS011;54298;52.076;5.264;2024-03-07T11:39:56;12.6;;;7.5;;
67429;SDS011;54298;52.076;5.264;2024-03-07T11:44:47;16.4;;;8.4;;
67429;SDS011;54298;52.076;5.264;2024-03-07T11:46:24;16.4;;;7.7;;
67429;SDS011;54298;52.076;5.264;2024-03-07T11:49:36;14.5;;;7.9;;
67429;SDS011;54298;52.076;5.264;2024-03-07T11:51:12;14.0;;;7.8;;
67429;SDS011;54298;52.076;5.264;2024-03-07T11:52:48;14.0;;;7.8;;
67429;SDS011;54298;52.076;5.264;2024-03-07T11:54:24;11.0;;;7.8;;
67429;SDS011;54298;52.076;5.264;2024-03-07T11:57:37;14.1;;;7.7;;
67429;SDS011;54298;52.076;5.264;2024-03-07T11:59:14;12.0;;;7.3;;
67429;SDS011;54298;52.076;5.264;2024-03-07T12:00:51;11.4;;;7.5;;
67429;SDS011;54298;52.076;5.264;2024-03-07T12:04:05;13.5;;;8.6;;
67429;SDS011;54298;52.076;5.264;2024-03-07T12:05:41;13.8;;;8.4;;
67429;SDS011;54298;52.076;5.264;2024-03-07T12:07:18;14.2;;;8.4;;
67429;SDS011;54298;52.076;5.264;2024-03-07T12:10:32;19.0;;;8.81;;
67429;SDS011;54298;52.076;5.264;2024-03-07T12:12:08;16.61;;;9.0;;
67429;SDS011;54298;52.076;5.264;2024-03-07T12:13:44;16.7;;;8.2;;
67429;SDS011;54298;52.076;5.264;2024-03-07T12:15:20;13.6;;;7.9;;
67429;SDS011;54298;52.076;5.264;2024-03-07T12:18:32;13.3;;;8.71;;
67429;SDS011;54298;52.076;5.264;2024-03-07T12:20:10;15.6;;;8.81;;
67429;SDS011;54298;52.076;5.264;2024-03-07T12:21:47;12.7;;;8.0;;
67429;SDS011;54298;52.076;5.264;2024-03-07T12:25:00;16.3;;;8.81;;
67429;SDS011;54298;52.076;5.264;2024-03-07T12:26:37;12.1;;;8.71;;
67429;SDS011;54298;52.076;5.264;2024-03-07T12:28:13;9.9;;;6.9;;
67429;SDS011;54298;52.076;5.264;2024-03-07T12:31:26;13.6;;;8.2;;
67429;SDS011;54298;52.076;5.264;2024-03-07T12:33:03;14.3;;;7.8;;
67429;SDS011;54298;52.076;5.264;2024-03-07T12:34:40;13.9;;;8.71;;
67429;SDS011;54298;52.076;5.264;2024-03-07T12:39:31;11.8;;;8.1;;
67429;SDS011;54298;52.076;5.264;2024-03-07T12:41:08;13.3;;;7.9;;
67429;SDS011;54298;52.076;5.264;2024-03-07T12:42:46;13.9;;;8.1;;